Main page
METAR-TAF:

METAR-TAF

Airports :

Leuchars Station

Leuchars, Scotland

latitude: 56-23N, longitude: 002-52W, elevation: 12 m

Current weather observation

The report was made 49 minutes ago, at 12:50 UTC
Wind 6 kt from the East/Southeast
Temperature 11°C
Humidity 76%
Pressure 1026 hPa
Visibility 10 km or more
Broken clouds at a height of 900 ft

METAR: EGQL 241250Z 11006KT 9999 BKN009 11/07 Q1026 GRN

Time: 14:39 (13:39 UTC)

Forecast

The report was made 3 hours and 27 minutes ago, at 10:12 UTC
Forecast valid from 24 at 12 UTC to 24 at 21 UTC
Wind 5 kt from the East/Southeast
Visibility 10 km or more
Broken clouds at a height of 600 ft
Probability 30% :
Temporary
from 24 at 12 UTC to 24 at 18 UTC
Few clouds at a height of 800 ft
Probability 40% :
Temporary
from 24 at 18 UTC to 24 at 21 UTC
Visibility: 7000 m
Broken clouds at a height of 400 ft
haze

TAF: EGQL 241012Z 2412/2421 11005KT 9999 BKN006 PROB30 TEMPO 2412/2418 FEW008 PROB40 TEMPO 2418/2421 7000 HZ BKN004

Weather observations and forecasts of more than 4000 airports (METAR and TAF reports).

The available stations are represented by yellow and red dots on the map.

Hover mouse over dot to see the name of the station.

Then click to see weather observations and forecasts.

To change the map : click on the green buttons with a black cross to zoom in, on the green button with a dash to zoom out, or on the green arrows for adjacent maps.


METAR-TAF: